»·PEaware :: CPA870 VHHH-KSFO

CPA870 :: VHHH-KSFO

FLIGHT INFORMATION

Flight Status: Arrived
Operator:
Cathay Pacific Airways
More flights by this operator :: More flights under this callsign
Pilot: Anonymous 13363 (13363)
Aircraft: Unknown
(B77W)
More flights by this aircraft type
Origin: VHHH Hong Kong Chek Lap Kok
Hong Kong
Destination: KSFO San Francisco Intl
United States
More flights between these airports :: More routes between these airports
Route: OCEA2A OCEAN V3 ENVAR M750 MOMPA/N0482F330 M750 BUNGU Y81 SYOYU Y809 KAGIS OTR11 SCORE R591 ADNAP OTR7 EMRON 42E60 44E70/N0476F350 45E80 46N70 47N60 47N50 45N40/N0476F370 42N30 VESPA AMAKR BDEGA2
File this flight plan on PilotEdge
Remarks:
Altitude:
(Current/Filed)
31,000ft
Speed:
(Current/Filed)
500kts
Departed: 16-Mar-18 06:17 PM
Arrived: 17-Mar-18 06:14 AM
Distance/Time
Traveled:
6004nm/11:57
Distance/Time
To Go:
Arrived

Flight Plot

Page will automatically refresh every two minutes.

Flight plan parsing failed; only flown route is shown


Map Options




Map Legend


Flown Route
Filed Route
Departure Airport
Arrival Airport
Navaid (VOR, NDB)
Fix

Horizontal Profiles

Position Reports

Time Latitude Longitude Heading Altitude Ground
Speed
16-Mar-18 17:41 22.312645 113.928377 341 41ft 0kts
16-Mar-18 17:42 22.312645 113.928377 341 41ft 0kts
16-Mar-18 17:43 22.312645 113.928377 341 41ft 0kts
16-Mar-18 17:44 22.312645 113.928377 341 41ft 0kts
16-Mar-18 17:45 22.312645 113.928377 341 41ft 0kts
16-Mar-18 17:46 22.312645 113.928377 341 41ft 0kts
16-Mar-18 17:47 22.312645 113.928377 341 41ft 0kts
16-Mar-18 17:48 22.312645 113.928377 341 41ft 0kts
16-Mar-18 17:49 22.312645 113.928377 341 41ft 0kts
16-Mar-18 17:50 22.312645 113.928377 341 41ft 0kts
16-Mar-18 17:51 22.312645 113.928377 341 41ft 0kts
16-Mar-18 17:52 22.312645 113.928377 341 41ft 0kts
16-Mar-18 17:53 22.312645 113.928377 341 41ft 0kts
16-Mar-18 17:54 22.312645 113.928377 341 41ft 0kts
16-Mar-18 17:55 22.312643 113.928377 341 41ft 0kts
16-Mar-18 17:56 22.312083 113.928572 332 41ft 2kts
16-Mar-18 17:57 22.311834 113.929011 263 41ft 2kts
16-Mar-18 17:58 22.311954 113.929482 250 41ft 2kts
16-Mar-18 17:59 22.311954 113.929482 250 41ft 1kts
16-Mar-18 18:00 22.311954 113.929482 250 41ft 0kts
16-Mar-18 18:01 22.311954 113.929482 250 41ft 0kts
16-Mar-18 18:02 22.311954 113.929482 250 41ft 0kts
16-Mar-18 18:03 22.311954 113.929481 250 41ft 0kts
16-Mar-18 18:04 22.310546 113.928520 177 41ft 15kts
16-Mar-18 18:05 22.307551 113.927413 246 41ft 12kts
16-Mar-18 18:06 22.306464 113.924085 250 41ft 10kts
16-Mar-18 18:07 22.305555 113.921254 251 41ft 9kts
16-Mar-18 18:08 22.305186 113.920087 251 41ft 8kts
16-Mar-18 18:09 22.304662 113.918438 251 41ft 7kts
16-Mar-18 18:10 22.303983 113.916323 250 41ft 8kts
16-Mar-18 18:11 22.302472 113.911630 252 41ft 20kts
16-Mar-18 18:12 22.300784 113.906461 249 41ft 16kts
16-Mar-18 18:13 22.299482 113.902358 251 41ft 12kts
16-Mar-18 18:14 22.298367 113.898981 250 41ft 11kts
16-Mar-18 18:15 22.296356 113.898512 66 41ft 6kts
16-Mar-18 18:16 22.303577 113.920458 69 97ft 175kts
16-Mar-18 18:17 22.320789 113.971076 73 2442ft 175kts
16-Mar-18 18:18 22.335545 114.020675 87 4151ft 177kts
16-Mar-18 18:19 22.322042 114.081295 117 5093ft 226kts
16-Mar-18 18:20 22.296194 114.147382 108 6968ft 237kts
16-Mar-18 18:21 22.285441 114.184393 110 7759ft 248kts
16-Mar-18 18:22 22.285441 114.184393 110 7759ft 248kts
16-Mar-18 18:23 22.285441 114.184393 110 7759ft 248kts
16-Mar-18 18:24 22.285441 114.184393 110 7759ft 248kts
16-Mar-18 18:25 22.285441 114.184393 110 7759ft 248kts
16-Mar-18 18:26 22.268262 114.235323 113 9011ft 256kts
16-Mar-18 18:27 22.235970 114.306160 129 10411ft 277kts
16-Mar-18 18:28 22.179108 114.375658 133 11014ft 344kts
16-Mar-18 18:29 22.108810 114.459320 133 12071ft 400kts
16-Mar-18 18:30 22.032674 114.550076 133 14305ft 416kts
16-Mar-18 18:31 21.953822 114.644560 134 16404ft 431kts
16-Mar-18 18:32 21.871644 114.742198 134 18281ft 447kts
16-Mar-18 18:33 21.810010 114.858764 100 19917ft 468kts
16-Mar-18 18:34 21.804830 115.000839 90 21520ft 481kts
16-Mar-18 18:35 21.800072 115.146509 92 22992ft 492kts
16-Mar-18 18:36 21.794332 115.295364 92 24295ft 504kts
16-Mar-18 18:37 21.788583 115.448340 92 25461ft 516kts
16-Mar-18 18:38 21.782562 115.604468 92 26537ft 528kts
16-Mar-18 18:39 21.776522 115.764546 92 27525ft 540kts
16-Mar-18 18:40 21.770288 115.927378 92 28420ft 550kts
16-Mar-18 18:41 21.763619 116.093203 92 29230ft 560kts
16-Mar-18 18:42 21.756657 116.261952 92 30135ft 565kts
16-Mar-18 18:43 21.749536 116.430422 92 31177ft 565kts
16-Mar-18 18:44 21.742361 116.599479 93 31187ft 564kts
16-Mar-18 18:45 21.739151 116.767736 83 31210ft 564kts
16-Mar-18 18:46 21.783796 116.927960 64 31213ft 558kts
16-Mar-18 18:47 21.841677 117.082628 66 31215ft 558kts
16-Mar-18 18:48 21.898160 117.238110 65 31215ft 558kts
16-Mar-18 18:49 21.954154 117.394208 66 31216ft 558kts
16-Mar-18 18:50 22.017176 117.545880 55 31216ft 552kts
16-Mar-18 18:51 22.097794 117.687129 54 31218ft 552kts
16-Mar-18 18:52 22.177838 117.828286 54 31218ft 552kts
16-Mar-18 18:53 22.257632 117.970278 54 31217ft 552kts
16-Mar-18 18:54 22.339045 118.110557 53 31188ft 553kts
16-Mar-18 18:55 22.420649 118.250879 54 31175ft 552kts
16-Mar-18 18:56 22.500792 118.392788 54 31171ft 552kts
16-Mar-18 18:57 22.580666 118.534305 54 31175ft 552kts
16-Mar-18 18:58 22.661322 118.676118 54 31168ft 552kts
16-Mar-18 18:59 22.741489 118.817673 54 31166ft 552kts
16-Mar-18 19:00 22.821939 118.959177 54 31162ft 552kts
16-Mar-18 19:01 22.902295 119.101444 54 31159ft 552kts
16-Mar-18 19:02 22.982274 119.243483 54 31159ft 552kts
16-Mar-18 19:03 23.062591 119.386168 54 31156ft 553kts
16-Mar-18 19:04 23.142257 119.528752 54 31152ft 553kts
16-Mar-18 19:05 23.222154 119.671092 54 31149ft 552kts
16-Mar-18 19:06 23.302129 119.814068 54 31148ft 552kts
16-Mar-18 19:07 23.390606 119.948561 42 31147ft 544kts
16-Mar-18 19:08 23.497762 120.063220 37 31149ft 540kts
16-Mar-18 19:09 23.607036 120.175990 37 31150ft 540kts
16-Mar-18 19:10 23.716058 120.288359 37 31146ft 540kts
16-Mar-18 19:11 23.825159 120.401751 37 31151ft 540kts
16-Mar-18 19:12 23.933676 120.515001 38 31149ft 540kts
16-Mar-18 19:13 24.041624 120.629081 38 31145ft 540kts
16-Mar-18 19:14 24.149822 120.743663 38 31144ft 540kts
16-Mar-18 19:15 24.257749 120.857537 38 31146ft 540kts
16-Mar-18 19:16 24.365431 120.972167 38 31157ft 540kts
16-Mar-18 19:17 24.467963 121.094193 46 31175ft 548kts
16-Mar-18 19:18 24.560993 121.226203 46 31194ft 547kts
16-Mar-18 19:19 24.655570 121.356943 46 31216ft 546kts
16-Mar-18 19:20 24.750534 121.487988 46 31222ft 546kts
16-Mar-18 19:21 24.844706 121.619090 46 31224ft 546kts
16-Mar-18 19:22 24.940576 121.749055 43 31226ft 543kts
16-Mar-18 19:23 25.039853 121.874107 43 31224ft 542kts
16-Mar-18 19:24 25.138070 122.000068 44 31228ft 541kts
16-Mar-18 19:25 25.236031 122.127113 44 31226ft 542kts
16-Mar-18 19:26 25.333627 122.253512 44 31225ft 541kts
16-Mar-18 19:27 25.430796 122.380083 44 31223ft 540kts
16-Mar-18 19:28 25.528103 122.507106 44 31222ft 539kts
16-Mar-18 19:29 25.625215 122.633403 44 31222ft 540kts
16-Mar-18 19:30 25.722636 122.760084 44 31221ft 540kts
16-Mar-18 19:31 25.820311 122.887585 44 31223ft 541kts
16-Mar-18 19:32 25.917606 123.015207 44 31202ft 541kts
16-Mar-18 19:33 26.015017 123.143588 44 31204ft 542kts
16-Mar-18 19:34 26.111146 123.270723 45 31200ft 536kts
16-Mar-18 19:35 26.207498 123.397755 45 31202ft 538kts
16-Mar-18 19:36 26.304064 123.525825 45 31207ft 539kts
16-Mar-18 19:37 26.384230 123.632476 45 31207ft 539kts
16-Mar-18 19:38 26.496524 123.781981 45 31209ft 539kts
16-Mar-18 19:39 26.592619 123.910813 45 31209ft 538kts
16-Mar-18 19:40 26.672315 124.017815 45 31209ft 537kts
16-Mar-18 19:41 26.783972 124.167597 45 31211ft 537kts
16-Mar-18 19:42 26.863857 124.274744 45 31202ft 536kts
16-Mar-18 19:43 26.958759 124.402958 46 31204ft 534kts
16-Mar-18 19:44 27.053463 124.530763 46 31205ft 532kts
16-Mar-18 19:45 27.148084 124.658855 46 31210ft 531kts
16-Mar-18 19:46 27.242503 124.786163 46 31212ft 530kts
16-Mar-18 19:47 27.336707 124.914376 46 31214ft 530kts
16-Mar-18 19:48 27.430547 125.041952 46 31216ft 530kts
16-Mar-18 19:49 27.524699 125.169316 46 31215ft 529kts
16-Mar-18 19:50 27.618819 125.297193 46 31211ft 528kts
16-Mar-18 19:51 27.712830 125.424246 46 31212ft 528kts
16-Mar-18 19:52 27.806320 125.551537 47 31219ft 527kts
16-Mar-18 19:53 27.899870 125.679370 47 31218ft 526kts
16-Mar-18 19:54 27.992840 125.806806 47 31219ft 526kts
16-Mar-18 19:55 28.085897 125.934738 47 31219ft 525kts
16-Mar-18 19:56 28.178562 126.062526 47 31219ft 525kts
16-Mar-18 19:57 28.271038 126.190419 47 31219ft 524kts
16-Mar-18 19:58 28.363563 126.318774 47 31222ft 523kts
16-Mar-18 19:59 28.455347 126.446500 47 31224ft 522kts
16-Mar-18 20:00 28.546871 126.574235 47 31238ft 521kts
16-Mar-18 20:01 28.638436 126.702428 48 31240ft 520kts
16-Mar-18 20:02 28.729401 126.830167 48 31243ft 519kts
16-Mar-18 20:03 28.820147 126.957989 48 31245ft 519kts
16-Mar-18 20:04 28.910882 127.086194 48 31247ft 518kts
16-Mar-18 20:05 29.001219 127.214226 48 31250ft 518kts
16-Mar-18 20:06 29.091281 127.342266 48 31254ft 517kts
16-Mar-18 20:07 29.181439 127.470845 48 31257ft 517kts
16-Mar-18 20:08 29.271168 127.599208 48 31269ft 516kts
16-Mar-18 20:09 29.361049 127.727827 48 31259ft 515kts
16-Mar-18 20:10 29.449932 127.855983 48 31262ft 514kts
16-Mar-18 20:11 29.538627 127.984205 48 31264ft 513kts
16-Mar-18 20:12 29.627646 128.113203 49 31263ft 514kts
16-Mar-18 20:13 29.716057 128.241892 49 31266ft 513kts
16-Mar-18 20:14 29.805014 128.370823 48 31267ft 514kts
16-Mar-18 20:15 29.893561 128.499914 49 31267ft 514kts
16-Mar-18 20:16 29.982102 128.629581 49 31269ft 516kts
16-Mar-18 20:17 30.070625 128.759656 49 31273ft 512kts
16-Mar-18 20:18 30.158391 128.889039 49 31276ft 513kts
16-Mar-18 20:19 30.246446 129.019266 49 31281ft 513kts
16-Mar-18 20:20 30.334165 129.149418 49 31284ft 514kts
16-Mar-18 20:21 30.421919 129.280052 49 31289ft 515kts
16-Mar-18 20:22 30.510020 129.411636 49 31293ft 516kts
16-Mar-18 20:23 30.597697 129.543020 49 31315ft 516kts
16-Mar-18 20:24 30.685700 129.674913 49 31318ft 516kts
16-Mar-18 20:25 30.773067 129.806957 49 31314ft 515kts
16-Mar-18 20:26 30.859144 129.939785 53 31315ft 515kts
16-Mar-18 20:27 30.934180 130.082656 56 31316ft 518kts
16-Mar-18 20:28 31.009022 130.225637 55 31317ft 516kts
16-Mar-18 20:29 31.084647 130.368161 55 31317ft 515kts
16-Mar-18 20:30 31.159502 130.510257 55 31318ft 514kts
16-Mar-18 20:31 31.234053 130.652464 55 31317ft 514kts
16-Mar-18 20:32 31.308652 130.795297 55 31329ft 514kts
16-Mar-18 20:33 31.382870 130.937935 55 31333ft 514kts
16-Mar-18 20:34 31.457369 131.081252 55 31341ft 514kts
16-Mar-18 20:35 31.531316 131.224506 55 31351ft 514kts
16-Mar-18 20:36 31.604881 131.367772 55 31362ft 513kts
16-Mar-18 20:37 31.678439 131.511811 55 31376ft 513kts
16-Mar-18 20:38 31.751347 131.655333 55 31376ft 512kts
16-Mar-18 20:39 31.824709 131.799197 55 31372ft 511kts
16-Mar-18 20:40 31.897440 131.942678 55 31371ft 511kts
16-Mar-18 20:41 31.969962 132.086365 55 31369ft 511kts
16-Mar-18 20:42 32.041932 132.229463 56 31381ft 504kts
16-Mar-18 20:43 32.113055 132.372002 56 31382ft 505kts
16-Mar-18 20:44 32.178406 132.519125 61 31383ft 508kts
16-Mar-18 20:45 32.240643 132.669576 60 31385ft 509kts
16-Mar-18 20:46 32.303733 132.819232 60 31367ft 510kts
16-Mar-18 20:47 32.367260 132.969951 60 31365ft 511kts
16-Mar-18 20:48 32.430207 133.120564 60 31438ft 513kts
16-Mar-18 20:49 32.493133 133.271789 60 32555ft 512kts
16-Mar-18 20:50 32.556171 133.423951 60 33345ft 515kts
16-Mar-18 20:51 32.618902 133.576046 60 33358ft 514kts
16-Mar-18 20:52 32.681754 133.729052 60 33362ft 514kts
16-Mar-18 20:53 32.744357 133.881588 61 33361ft 514kts
16-Mar-18 20:54 32.806636 134.035080 60 33362ft 515kts
16-Mar-18 20:55 32.854864 134.196778 72 33378ft 523kts
16-Mar-18 20:56 32.894001 134.363051 71 33381ft 522kts
16-Mar-18 20:57 32.935125 134.529237 70 33349ft 522kts
16-Mar-18 20:58 32.976097 134.695120 71 33349ft 523kts
16-Mar-18 20:59 33.017012 134.862129 70 33385ft 524kts
16-Mar-18 21:00 33.057452 135.028750 71 33380ft 525kts
16-Mar-18 21:01 33.097571 135.195977 71 33372ft 525kts
16-Mar-18 21:02 33.135321 135.365160 72 33362ft 527kts
16-Mar-18 21:03 33.172718 135.534097 71 33354ft 527kts
16-Mar-18 21:04 33.210438 135.703737 72 33348ft 528kts
16-Mar-18 21:05 33.247317 135.873203 72 33347ft 528kts
16-Mar-18 21:06 33.283679 136.042912 72 33347ft 529kts
16-Mar-18 21:07 33.320038 136.214567 72 33347ft 531kts
16-Mar-18 21:08 33.356663 136.385559 72 33347ft 532kts
16-Mar-18 21:09 33.392970 136.557126 72 33346ft 533kts
16-Mar-18 21:10 33.429112 136.729901 73 33347ft 535kts
16-Mar-18 21:11 33.464932 136.902446 73 33352ft 536kts
16-Mar-18 21:12 33.500777 137.076467 73 33351ft 537kts
16-Mar-18 21:13 33.536358 137.250407 73 33352ft 539kts
16-Mar-18 21:14 33.571961 137.424887 73 33353ft 540kts
16-Mar-18 21:15 33.607128 137.600566 73 33350ft 540kts
16-Mar-18 21:16 33.641953 137.775782 73 33352ft 540kts
16-Mar-18 21:17 33.677167 137.951632 73 33355ft 541kts
16-Mar-18 21:18 33.711606 138.127456 73 33357ft 542kts
16-Mar-18 21:19 33.749345 138.302285 67 33359ft 539kts
16-Mar-18 21:20 33.803420 138.470553 65 33362ft 540kts
16-Mar-18 21:21 33.856117 138.639840 65 33364ft 542kts
16-Mar-18 21:22 33.909432 138.810459 65 33367ft 545kts
16-Mar-18 21:23 33.962168 138.981896 66 33369ft 547kts
16-Mar-18 21:24 34.014909 139.154269 65 33364ft 549kts
16-Mar-18 21:25 34.067689 139.327516 65 33367ft 551kts
16-Mar-18 21:26 34.122384 139.500068 58 33373ft 547kts
16-Mar-18 21:27 34.201442 139.655487 50 33374ft 543kts
16-Mar-18 21:28 34.283058 139.810426 52 33375ft 545kts
16-Mar-18 21:29 34.363713 139.965617 52 33376ft 545kts
16-Mar-18 21:30 34.444708 140.121483 52 33376ft 546kts
16-Mar-18 21:31 34.525785 140.276989 51 33376ft 547kts
16-Mar-18 21:32 34.606546 140.433764 52 33374ft 549kts
16-Mar-18 21:33 34.687306 140.591573 52 33375ft 549kts
16-Mar-18 21:34 34.769819 140.747333 47 33374ft 545kts
16-Mar-18 21:35 34.859843 140.896592 47 33375ft 547kts
16-Mar-18 21:36 34.948607 141.047347 46 33376ft 548kts
16-Mar-18 21:37 35.037619 141.198391 47 33374ft 549kts
16-Mar-18 21:38 35.126479 141.350666 47 33375ft 550kts
16-Mar-18 21:39 35.215018 141.503116 47 33375ft 551kts
16-Mar-18 21:40 35.303724 141.656522 47 33374ft 551kts
16-Mar-18 21:41 35.392015 141.809875 47 33374ft 552kts
16-Mar-18 21:42 35.480228 141.963784 47 33373ft 553kts
16-Mar-18 21:43 35.568802 142.118985 47 33370ft 555kts
16-Mar-18 21:44 35.657280 142.274296 47 33370ft 555kts
16-Mar-18 21:45 35.745654 142.430691 47 33371ft 556kts
16-Mar-18 21:46 35.813678 142.566016 61 33369ft 570kts
16-Mar-18 21:47 35.835407 142.793169 87 33374ft 581kts
16-Mar-18 21:48 35.844694 142.992466 84 33369ft 581kts
16-Mar-18 21:49 35.854906 143.157898 85 33368ft 582kts
16-Mar-18 21:50 35.867808 143.390295 85 33366ft 583kts
16-Mar-18 21:51 35.877107 143.556931 85 33364ft 584kts
16-Mar-18 21:52 35.887270 143.756456 86 33365ft 584kts
16-Mar-18 21:53 35.935511 143.942309 46 33361ft 562kts
16-Mar-18 21:54 36.044168 144.076829 37 33358ft 555kts
16-Mar-18 21:55 36.149622 144.216925 39 33359ft 557kts
16-Mar-18 21:56 36.254420 144.358800 40 33358ft 558kts
16-Mar-18 21:57 36.358680 144.500827 40 33357ft 557kts
16-Mar-18 21:58 36.463085 144.643719 40 33354ft 557kts
16-Mar-18 21:59 36.567082 144.786633 41 33357ft 558kts
16-Mar-18 22:00 36.670959 144.930051 41 33352ft 558kts
16-Mar-18 22:01 36.775098 145.074436 41 33353ft 559kts
16-Mar-18 22:02 36.878810 145.218864 42 33352ft 560kts
16-Mar-18 22:03 36.982443 145.363804 42 33350ft 559kts
16-Mar-18 22:04 37.086337 145.509428 42 33348ft 559kts
16-Mar-18 22:05 37.186719 145.658323 52 33341ft 566kts
16-Mar-18 22:06 37.241752 145.844342 75 33348ft 572kts
16-Mar-18 22:07 37.281410 146.037476 73 33344ft 572kts
16-Mar-18 22:08 37.325352 146.229866 73 33341ft 574kts
16-Mar-18 22:09 37.368898 146.423298 74 33339ft 574kts
16-Mar-18 22:10 37.411897 146.616607 74 33325ft 575kts
16-Mar-18 22:11 37.454792 146.811138 74 33321ft 577kts
16-Mar-18 22:12 37.497397 147.006026 75 33318ft 578kts
16-Mar-18 22:13 37.539753 147.201463 75 33255ft 580kts
16-Mar-18 22:14 37.581957 147.397932 75 33227ft 580kts
16-Mar-18 22:15 37.623709 147.594033 76 33223ft 580kts
16-Mar-18 22:16 37.665122 147.790280 76 33219ft 579kts
16-Mar-18 22:17 37.706337 147.987335 76 33215ft 578kts
16-Mar-18 22:18 37.746997 148.183542 76 33210ft 579kts
16-Mar-18 22:19 37.787562 148.381083 77 33208ft 580kts
16-Mar-18 22:20 37.827752 148.578613 77 33204ft 581kts
16-Mar-18 22:21 37.867761 148.777079 78 33201ft 584kts
16-Mar-18 22:22 37.907724 148.977235 78 33197ft 586kts
16-Mar-18 22:23 37.947358 149.177656 78 33193ft 588kts
16-Mar-18 22:24 37.986852 149.379321 79 33190ft 589kts
16-Mar-18 22:25 38.025888 149.580606 79 33186ft 587kts
16-Mar-18 22:26 38.064836 149.781912 80 33182ft 589kts
16-Mar-18 22:27 38.105659 149.983942 71 33176ft 594kts
16-Mar-18 22:28 38.182095 150.170034 59 33177ft 596kts
16-Mar-18 22:29 38.265242 150.352671 60 33170ft 596kts
16-Mar-18 22:30 38.348176 150.535198 60 33167ft 597kts
16-Mar-18 22:31 38.430456 150.718629 60 33164ft 597kts
16-Mar-18 22:32 38.512683 150.903312 61 33160ft 598kts
16-Mar-18 22:33 38.594471 151.088118 61 33176ft 599kts
16-Mar-18 22:34 38.676446 151.274427 61 33172ft 600kts
16-Mar-18 22:35 38.757946 151.460759 61 33168ft 601kts
16-Mar-18 22:36 38.839295 151.647852 61 33164ft 601kts
16-Mar-18 22:37 38.920701 151.836204 62 33159ft 602kts
16-Mar-18 22:38 39.001517 152.024305 62 33154ft 602kts
16-Mar-18 22:39 39.082313 152.213514 62 33151ft 604kts
16-Mar-18 22:40 39.163040 152.403695 62 33147ft 604kts
16-Mar-18 22:41 39.243261 152.593881 62 33142ft 604kts
16-Mar-18 22:42 39.323447 152.785128 63 33138ft 604kts
16-Mar-18 22:43 39.403106 152.976326 63 33132ft 605kts
16-Mar-18 22:44 39.482639 153.168394 63 33128ft 607kts
16-Mar-18 22:45 39.562332 153.362056 64 33121ft 608kts
16-Mar-18 22:46 39.641559 153.555840 64 33118ft 610kts
16-Mar-18 22:47 39.720675 153.750554 65 33113ft 611kts
16-Mar-18 22:48 39.799823 153.946641 65 33108ft 612kts
16-Mar-18 22:49 39.878505 154.142827 65 33103ft 612kts
16-Mar-18 22:50 39.957097 154.340090 65 33098ft 612kts
16-Mar-18 22:51 40.034994 154.536845 65 33092ft 612kts
16-Mar-18 22:52 40.112675 154.734389 65 33086ft 612kts
16-Mar-18 22:53 40.190245 154.932936 65 33081ft 611kts
16-Mar-18 22:54 40.267150 155.131107 65 33075ft 611kts
16-Mar-18 22:55 40.343986 155.330446 65 33076ft 612kts
16-Mar-18 22:56 40.420196 155.529476 65 33070ft 611kts
16-Mar-18 22:57 40.496110 155.729078 66 33064ft 611kts
16-Mar-18 22:58 40.571844 155.929577 66 33058ft 611kts
16-Mar-18 22:59 40.647050 156.130032 66 33052ft 611kts
16-Mar-18 23:00 40.722043 156.331315 66 33046ft 611kts
16-Mar-18 23:01 40.796561 156.532710 66 33039ft 612kts
16-Mar-18 23:02 40.870811 156.734782 66 33033ft 613kts
16-Mar-18 23:03 40.945025 156.938198 66 33027ft 613kts
16-Mar-18 23:04 41.018694 157.141522 66 33020ft 613kts
16-Mar-18 23:05 41.091958 157.345179 67 33014ft 613kts
16-Mar-18 23:06 41.165133 157.550080 67 33005ft 613kts
16-Mar-18 23:07 41.237817 157.755021 67 33001ft 614kts
16-Mar-18 23:08 41.310461 157.961354 67 32995ft 615kts
16-Mar-18 23:09 41.382480 158.167478 67 32984ft 615kts
16-Mar-18 23:10 41.454113 158.373931 67 32981ft 615kts
16-Mar-18 23:11 41.525592 158.581495 67 32876ft 614kts
16-Mar-18 23:12 41.596527 158.788977 69 32755ft 615kts
16-Mar-18 23:13 41.667247 158.997487 69 32748ft 615kts
16-Mar-18 23:14 41.737335 159.205620 69 32741ft 615kts
16-Mar-18 23:15 41.807035 159.414199 69 32737ft 614kts
16-Mar-18 23:16 41.876682 159.623976 68 32728ft 615kts
16-Mar-18 23:17 41.945888 159.833768 69 32722ft 616kts
16-Mar-18 23:18 42.013349 160.045093 73 32716ft 614kts
16-Mar-18 23:19 42.066023 160.263273 77 32710ft 612kts
16-Mar-18 23:20 42.118590 160.480790 75 32699ft 613kts
16-Mar-18 23:21 42.172810 160.698856 76 32700ft 612kts
16-Mar-18 23:22 42.225722 160.916714 76 32695ft 612kts
16-Mar-18 23:23 42.278160 161.134942 76 32691ft 611kts
16-Mar-18 23:24 42.330241 161.353798 76 32685ft 610kts
16-Mar-18 23:25 42.381624 161.571829 76 32681ft 609kts
16-Mar-18 23:26 42.432541 161.789950 76 32676ft 608kts
16-Mar-18 23:27 42.483160 162.008967 76 32672ft 608kts
16-Mar-18 23:28 42.533177 162.227497 76 32668ft 608kts
16-Mar-18 23:29 42.582931 162.447065 76 32664ft 607kts
16-Mar-18 23:30 42.632106 162.666277 76 32661ft 608kts
16-Mar-18 23:31 42.680841 162.885734 77 32657ft 607kts
16-Mar-18 23:32 42.729257 163.106035 77 32653ft 606kts
16-Mar-18 23:33 42.777049 163.325693 77 32650ft 606kts
16-Mar-18 23:34 42.824324 163.545239 77 32649ft 605kts
16-Mar-18 23:35 42.871271 163.765564 77 32647ft 603kts
16-Mar-18 23:36 42.917606 163.985333 77 32640ft 605kts
16-Mar-18 23:37 42.963511 164.205385 77 32638ft 602kts
16-Mar-18 23:38 43.009025 164.425905 77 32635ft 602kts
16-Mar-18 23:39 43.053959 164.646006 77 32637ft 602kts
16-Mar-18 23:40 43.098570 164.866883 78 32630ft 601kts
16-Mar-18 23:41 43.142536 165.086997 78 32627ft 599kts
16-Mar-18 23:42 43.185966 165.306861 78 32625ft 598kts
16-Mar-18 23:43 43.229085 165.527596 78 32623ft 598kts
16-Mar-18 23:44 43.271629 165.747847 78 32620ft 598kts
16-Mar-18 23:45 43.313747 165.968398 78 32618ft 598kts
16-Mar-18 23:46 43.355482 166.189491 78 32616ft 595kts
16-Mar-18 23:47 43.396606 166.409869 78 32614ft 595kts
16-Mar-18 23:48 43.437306 166.630552 78 32613ft 593kts
16-Mar-18 23:49 43.477351 166.850257 78 32521ft 591kts
16-Mar-18 23:50 43.516842 167.069516 79 32520ft 589kts
16-Mar-18 23:51 43.555902 167.288987 78 32521ft 588kts
16-Mar-18 23:52 43.594357 167.507698 79 32523ft 587kts
16-Mar-18 23:53 43.632331 167.726312 79 32521ft 587kts
16-Mar-18 23:54 43.670059 167.946212 79 32519ft 587kts
16-Mar-18 23:55 43.707200 168.165388 79 32520ft 586kts
16-Mar-18 23:56 43.743973 168.385153 79 32520ft 585kts
16-Mar-18 23:57 43.780121 168.603941 79 32520ft 583kts
16-Mar-18 23:58 43.815718 168.822200 79 32521ft 581kts
16-Mar-18 23:59 43.845116 169.004545 79 32521ft 580kts
17-Mar-18 00:00 43.879717 169.221780 79 32521ft 577kts
17-Mar-18 00:01 43.913791 169.438516 79 32522ft 575kts
17-Mar-18 00:02 43.947996 169.655927 79 32525ft 575kts
17-Mar-18 00:03 43.986306 169.908983 80 32525ft 574kts
17-Mar-18 00:04 44.013179 170.090632 80 32856ft 575kts
17-Mar-18 00:05 44.043585 170.306025 81 34262ft 566kts
17-Mar-18 00:06 44.073731 170.520436 80 34527ft 566kts
17-Mar-18 00:07 44.104663 170.735441 81 34527ft 565kts
17-Mar-18 00:08 44.134361 170.950004 81 34527ft 565kts
17-Mar-18 00:09 44.163534 171.164393 81 34527ft 564kts
17-Mar-18 00:10 44.192307 171.379105 82 34523ft 562kts
17-Mar-18 00:11 44.220518 171.592769 82 34522ft 561kts
17-Mar-18 00:12 44.248368 171.806939 82 34525ft 559kts
17-Mar-18 00:13 44.275660 172.020012 82 34524ft 559kts
17-Mar-18 00:14 44.302575 172.233534 82 34526ft 559kts
17-Mar-18 00:15 44.329148 172.447686 82 34526ft 559kts
17-Mar-18 00:16 44.355283 172.661707 83 34527ft 559kts
17-Mar-18 00:17 44.380989 172.875672 83 34527ft 558kts
17-Mar-18 00:18 44.406358 173.090375 83 34525ft 558kts
17-Mar-18 00:19 44.431195 173.304108 83 34526ft 556kts
17-Mar-18 00:20 44.455658 173.518262 83 34527ft 556kts
17-Mar-18 00:21 44.479586 173.731383 83 34527ft 554kts
17-Mar-18 00:22 44.503086 173.944372 83 34554ft 554kts
17-Mar-18 00:23 44.526233 174.157957 83 34565ft 552kts
17-Mar-18 00:24 44.548862 174.370559 83 34688ft 552kts
17-Mar-18 00:25 44.571105 174.583270 84 34691ft 552kts
17-Mar-18 00:26 44.592984 174.796710 84 34688ft 552kts
17-Mar-18 00:27 44.614382 175.009499 84 34688ft 551kts
17-Mar-18 00:28 44.635381 175.222168 84 34687ft 550kts
17-Mar-18 00:29 44.656014 175.435390 84 34687ft 549kts
17-Mar-18 00:30 44.676121 175.647367 84 34686ft 548kts
17-Mar-18 00:31 44.695894 175.860110 84 34686ft 547kts
17-Mar-18 00:32 44.715166 176.071974 84 34695ft 547kts
17-Mar-18 00:33 44.734017 176.283454 84 34694ft 545kts
17-Mar-18 00:34 44.752527 176.495708 84 34695ft 545kts
17-Mar-18 00:35 44.770575 176.707311 84 34695ft 545kts
17-Mar-18 00:36 44.788278 176.919622 84 34696ft 544kts
17-Mar-18 00:37 44.805526 177.131214 84 34696ft 544kts
17-Mar-18 00:38 44.822346 177.342516 84 34696ft 543kts
17-Mar-18 00:39 44.838799 177.554220 84 34696ft 542kts
17-Mar-18 00:40 44.854821 177.765506 85 34620ft 541kts
17-Mar-18 00:41 44.870404 177.976252 85 34620ft 542kts
17-Mar-18 00:42 44.885645 178.187768 84 34603ft 540kts
17-Mar-18 00:43 44.900433 178.398418 85 34603ft 540kts
17-Mar-18 00:44 44.914819 178.609022 85 34603ft 540kts
17-Mar-18 00:45 44.928875 178.820600 85 34603ft 540kts
17-Mar-18 00:46 44.942492 179.031500 85 34603ft 540kts
17-Mar-18 00:47 44.955768 179.243235 85 34603ft 540kts
17-Mar-18 00:48 44.968586 179.454021 85 34594ft 539kts
17-Mar-18 00:49 44.981528 179.664881 85 34594ft 539kts
17-Mar-18 00:50 44.993245 179.876542 85 34597ft 540kts
17-Mar-18 00:51 45.009859 -179.913581 77 34663ft 534kts
17-Mar-18 00:52 45.041161 -179.707701 76 34741ft 537kts
17-Mar-18 00:53 45.070640 -179.500015 76 34739ft 537kts
17-Mar-18 00:54 45.100629 -179.293500 76 34740ft 537kts
17-Mar-18 00:55 45.129521 -179.085685 77 34739ft 537kts
17-Mar-18 00:56 45.157834 -178.878324 77 34739ft 536kts
17-Mar-18 00:57 45.185726 -178.670999 77 34738ft 536kts
17-Mar-18 00:58 45.213372 -178.462455 77 34737ft 537kts
17-Mar-18 00:59 45.240548 -178.254395 77 34737ft 537kts
17-Mar-18 01:00 45.267341 -178.046185 77 34737ft 538kts
17-Mar-18 01:01 45.293871 -177.836842 77 34737ft 536kts
17-Mar-18 01:02 45.319903 -177.628260 77 34736ft 536kts
17-Mar-18 01:03 45.345573 -177.419349 77 34736ft 535kts
17-Mar-18 01:04 45.370751 -177.211153 77 34758ft 535kts
17-Mar-18 01:05 45.395543 -177.002833 77 34757ft 534kts
17-Mar-18 01:06 45.419985 -176.794074 77 34757ft 534kts
17-Mar-18 01:07 45.443955 -176.585925 77 34782ft 533kts
17-Mar-18 01:08 45.467534 -176.377802 77 34788ft 533kts
17-Mar-18 01:09 45.490813 -176.168727 78 34788ft 534kts
17-Mar-18 01:10 45.513683 -175.959703 78 34788ft 534kts
17-Mar-18 01:11 45.536197 -175.750349 78 34787ft 533kts
17-Mar-18 01:12 45.558238 -175.541634 78 34787ft 533kts
17-Mar-18 01:13 45.579893 -175.332862 78 34787ft 532kts
17-Mar-18 01:14 45.601212 -175.123427 78 34787ft 531kts
17-Mar-18 01:15 45.622050 -174.914850 78 34787ft 531kts
17-Mar-18 01:16 45.642521 -174.706087 78 34787ft 531kts
17-Mar-18 01:17 45.662675 -174.496312 78 34787ft 532kts
17-Mar-18 01:18 45.682405 -174.286904 78 34787ft 533kts
17-Mar-18 01:19 45.701838 -174.076421 78 34848ft 533kts
17-Mar-18 01:20 45.720831 -173.866454 78 34852ft 533kts
17-Mar-18 01:21 45.739448 -173.656099 78 34852ft 533kts
17-Mar-18 01:22 45.757704 -173.445384 78 34851ft 532kts
17-Mar-18 01:23 45.775497 -173.235415 78 34851ft 531kts
17-Mar-18 01:24 45.792896 -173.025516 78 34851ft 531kts
17-Mar-18 01:25 45.809931 -172.815105 78 34850ft 530kts
17-Mar-18 01:26 45.826536 -172.605181 78 34850ft 531kts
17-Mar-18 01:27 45.842781 -172.394863 78 34850ft 531kts
17-Mar-18 01:28 45.858687 -172.183711 78 34851ft 532kts
17-Mar-18 01:29 45.874189 -171.972665 78 34851ft 533kts
17-Mar-18 01:30 45.889367 -171.760601 78 34851ft 533kts
17-Mar-18 01:31 45.904099 -171.549441 78 34851ft 532kts
17-Mar-18 01:32 45.918402 -171.338577 78 34853ft 531kts
17-Mar-18 01:33 45.932334 -171.126997 78 34851ft 530kts
17-Mar-18 01:34 45.945815 -170.916632 78 34851ft 529kts
17-Mar-18 01:35 45.958911 -170.706108 78 34850ft 529kts
17-Mar-18 01:36 45.971676 -170.494553 78 34852ft 530kts
17-Mar-18 01:37 45.984449 -170.283814 78 34852ft 531kts
17-Mar-18 01:38 45.996093 -170.071503 78 34852ft 532kts
17-Mar-18 01:39 46.017304 -169.863485 69 34853ft 522kts
17-Mar-18 01:40 46.048163 -169.659329 70 34852ft 524kts
17-Mar-18 01:41 46.077460 -169.453503 69 34852ft 522kts
17-Mar-18 01:42 46.106921 -169.248789 70 34853ft 523kts
17-Mar-18 01:43 46.135359 -169.043630 70 34853ft 522kts
17-Mar-18 01:44 46.163357 -168.837762 70 34853ft 522kts
17-Mar-18 01:45 46.190856 -168.632780 70 34854ft 520kts
17-Mar-18 01:46 46.218021 -168.427362 70 34853ft 519kts
17-Mar-18 01:47 46.244662 -168.222939 70 34854ft 518kts
17-Mar-18 01:48 46.270937 -168.018313 70 34855ft 518kts
17-Mar-18 01:49 46.296865 -167.813408 70 34854ft 517kts
17-Mar-18 01:50 46.322359 -167.608765 70 34855ft 517kts
17-Mar-18 01:51 46.347501 -167.403938 71 34855ft 518kts
17-Mar-18 01:52 46.372336 -167.198271 71 34855ft 517kts
17-Mar-18 01:53 46.396692 -166.993477 71 34856ft 516kts
17-Mar-18 01:54 46.420711 -166.788207 71 34856ft 515kts
17-Mar-18 01:55 46.444232 -166.583877 71 34856ft 514kts
17-Mar-18 01:56 46.467336 -166.379942 71 34914ft 513kts
17-Mar-18 01:57 46.490101 -166.175482 71 34913ft 512kts
17-Mar-18 01:58 46.512434 -165.971655 71 34913ft 512kts
17-Mar-18 01:59 46.534372 -165.767832 71 34912ft 511kts
17-Mar-18 02:00 46.555999 -165.563278 71 34912ft 511kts
17-Mar-18 02:01 46.577199 -165.359249 71 34912ft 512kts
17-Mar-18 02:02 46.598086 -165.154681 72 34921ft 512kts
17-Mar-18 02:03 46.618672 -164.949229 72 34920ft 512kts
17-Mar-18 02:04 46.638819 -164.744222 72 34920ft 513kts
17-Mar-18 02:05 46.658693 -164.538190 72 34920ft 513kts
17-Mar-18 02:06 46.678117 -164.332956 72 34920ft 512kts
17-Mar-18 02:07 46.697169 -164.127466 72 34920ft 512kts
17-Mar-18 02:08 46.715915 -163.921297 73 34919ft 513kts
17-Mar-18 02:09 46.734232 -163.715506 73 34919ft 513kts
17-Mar-18 02:10 46.749318 -163.542928 74 34920ft 514kts
17-Mar-18 02:11 46.769944 -163.301840 74 34933ft 514kts
17-Mar-18 02:12 46.787232 -163.094507 74 34934ft 514kts
17-Mar-18 02:13 46.801341 -162.921731 75 34935ft 515kts
17-Mar-18 02:14 46.817961 -162.714032 75 34936ft 515kts
17-Mar-18 02:15 46.834261 -162.505754 76 34958ft 515kts
17-Mar-18 02:16 46.850140 -162.297897 76 34959ft 516kts
17-Mar-18 02:17 46.868180 -162.054795 76 34957ft 516kts
17-Mar-18 02:18 46.880855 -161.880129 77 34957ft 517kts
17-Mar-18 02:19 46.895589 -161.671838 78 34957ft 516kts
17-Mar-18 02:20 46.909968 -161.463271 78 34958ft 516kts
17-Mar-18 02:21 46.924001 -161.253941 79 34957ft 515kts
17-Mar-18 02:22 46.937604 -161.045321 79 34957ft 515kts
17-Mar-18 02:23 46.950860 -160.836108 79 34975ft 516kts
17-Mar-18 02:24 46.963698 -160.627427 80 34975ft 515kts
17-Mar-18 02:25 46.976455 -160.419129 80 34986ft 514kts
17-Mar-18 02:26 46.988542 -160.209613 81 34987ft 515kts
17-Mar-18 02:27 46.999972 -160.000820 81 34988ft 515kts
17-Mar-18 02:28 47.008645 -159.791707 84 34986ft 513kts
17-Mar-18 02:29 47.016469 -159.582209 84 34977ft 514kts
17-Mar-18 02:30 47.025022 -159.373623 83 34977ft 513kts
17-Mar-18 02:31 47.033289 -159.164267 84 34975ft 513kts
17-Mar-18 02:32 47.040748 -158.955594 85 34975ft 513kts
17-Mar-18 02:33 47.047738 -158.746893 85 34976ft 513kts
17-Mar-18 02:34 47.054378 -158.537664 85 34982ft 512kts
17-Mar-18 02:35 47.060612 -158.329280 86 34983ft 512kts
17-Mar-18 02:36 47.066474 -158.120805 86 34983ft 512kts
17-Mar-18 02:37 47.071985 -157.911665 87 34981ft 511kts
17-Mar-18 02:38 47.077046 -157.703900 87 35008ft 511kts
17-Mar-18 02:39 47.081772 -157.495188 87 35008ft 510kts
17-Mar-18 02:40 47.086102 -157.287371 88 35009ft 510kts
17-Mar-18 02:41 47.090053 -157.079467 88 35009ft 510kts
17-Mar-18 02:42 47.093619 -156.870305 87 35011ft 511kts
17-Mar-18 02:43 47.096840 -156.662502 87 35011ft 509kts
17-Mar-18 02:44 47.099664 -156.454658 87 35013ft 510kts
17-Mar-18 02:45 47.102113 -156.246238 88 35029ft 510kts
17-Mar-18 02:46 47.104177 -156.038595 88 35029ft 509kts
17-Mar-18 02:47 47.105876 -155.831436 89 35030ft 506kts
17-Mar-18 02:48 47.107185 -155.624213 89 35031ft 507kts
17-Mar-18 02:49 47.108114 -155.417644 90 35017ft 506kts
17-Mar-18 02:50 47.108680 -155.210511 90 35017ft 506kts
17-Mar-18 02:51 47.108872 -155.003882 90 35013ft 506kts
17-Mar-18 02:52 47.108695 -154.797671 91 35016ft 506kts
17-Mar-18 02:53 47.108144 -154.591083 91 35017ft 504kts
17-Mar-18 02:54 47.107229 -154.385573 91 35017ft 504kts
17-Mar-18 02:55 47.105960 -154.180236 92 35017ft 504kts
17-Mar-18 02:56 47.104296 -153.974072 92 35060ft 503kts
17-Mar-18 02:57 47.102288 -153.769564 93 35060ft 501kts
17-Mar-18 02:58 47.099919 -153.565376 93 35060ft 501kts
17-Mar-18 02:59 47.097176 -153.360499 93 35060ft 500kts
17-Mar-18 03:00 47.094090 -153.156736 93 35060ft 500kts
17-Mar-18 03:01 47.090640 -152.953195 94 35060ft 499kts
17-Mar-18 03:02 47.086828 -152.749340 94 35061ft 498kts
17-Mar-18 03:03 47.082674 -152.546612 94 35060ft 497kts
17-Mar-18 03:04 47.078171 -152.344182 95 35074ft 497kts
17-Mar-18 03:05 47.073298 -152.141252 95 35074ft 497kts
17-Mar-18 03:06 47.068095 -151.939094 95 35073ft 496kts
17-Mar-18 03:07 47.062543 -151.737759 96 35074ft 495kts
17-Mar-18 03:08 47.056624 -151.535821 96 35073ft 494kts
17-Mar-18 03:09 47.050371 -151.334508 96 35079ft 495kts
17-Mar-18 03:10 47.043777 -151.133340 96 35078ft 495kts
17-Mar-18 03:11 47.036793 -150.931523 97 35079ft 494kts
17-Mar-18 03:12 47.029483 -150.730370 97 35079ft 495kts
17-Mar-18 03:13 47.021836 -150.529591 97 35076ft 494kts
17-Mar-18 03:14 47.014335 -150.328122 97 35076ft 494kts
17-Mar-18 03:15 47.005614 -150.127615 97 35076ft 493kts
17-Mar-18 03:16 46.991515 -149.928878 105 35076ft 488kts
17-Mar-18 03:17 46.960124 -149.735193 107 35073ft 488kts
17-Mar-18 03:18 46.929068 -149.541701 107 35073ft 489kts
17-Mar-18 03:19 46.899409 -149.346724 107 35073ft 490kts
17-Mar-18 03:20 46.869138 -149.152632 107 35072ft 491kts
17-Mar-18 03:21 46.838275 -148.958510 107 35073ft 491kts
17-Mar-18 03:22 46.806870 -148.763690 107 35069ft 492kts
17-Mar-18 03:23 46.775168 -148.569225 108 35069ft 493kts
17-Mar-18 03:24 46.743117 -148.374921 108 35069ft 494kts
17-Mar-18 03:25 46.710499 -148.179402 108 35069ft 496kts
17-Mar-18 03:26 46.677588 -147.984347 108 35060ft 497kts
17-Mar-18 03:27 46.644195 -147.788650 108 35060ft 497kts
17-Mar-18 03:28 46.610525 -147.593522 108 35060ft 498kts
17-Mar-18 03:29 46.576520 -147.398615 108 35060ft 497kts
17-Mar-18 03:30 46.542129 -147.203660 108 35060ft 497kts
17-Mar-18 03:31 46.507476 -147.009308 108 35059ft 497kts
17-Mar-18 03:32 46.472499 -146.815228 109 35060ft 498kts
17-Mar-18 03:33 46.437025 -146.620498 109 35060ft 499kts
17-Mar-18 03:34 46.401277 -146.426308 109 35060ft 499kts
17-Mar-18 03:35 46.365039 -146.231510 109 35062ft 500kts
17-Mar-18 03:36 46.328507 -146.037191 109 35114ft 502kts
17-Mar-18 03:37 46.291858 -145.844205 109 36392ft 497kts
17-Mar-18 03:38 46.254935 -145.651788 110 37076ft 495kts
17-Mar-18 03:39 46.217904 -145.460680 110 37069ft 495kts
17-Mar-18 03:40 46.180416 -145.269115 110 37066ft 494kts
17-Mar-18 03:41 46.142685 -145.078222 110 37065ft 496kts
17-Mar-18 03:42 46.104628 -144.887550 110 37065ft 496kts
17-Mar-18 03:43 46.066007 -144.695930 110 37065ft 497kts
17-Mar-18 03:44 46.027124 -144.504869 110 37065ft 498kts
17-Mar-18 03:45 45.987858 -144.313737 110 37060ft 499kts
17-Mar-18 03:46 45.948001 -144.121559 110 37057ft 500kts
17-Mar-18 03:47 45.908005 -143.930539 110 37057ft 500kts
17-Mar-18 03:48 45.867699 -143.739828 110 37057ft 500kts
17-Mar-18 03:49 45.826882 -143.548495 110 37031ft 501kts
17-Mar-18 03:50 45.785809 -143.357766 110 37033ft 502kts
17-Mar-18 03:51 45.744135 -143.165958 110 37029ft 504kts
17-Mar-18 03:52 45.702132 -142.974455 110 37031ft 506kts
17-Mar-18 03:53 45.659714 -142.782758 110 37027ft 506kts
17-Mar-18 03:54 45.616786 -142.590528 110 37029ft 507kts
17-Mar-18 03:55 45.573593 -142.398834 110 37028ft 507kts
17-Mar-18 03:56 45.530126 -142.207640 110 37028ft 508kts
17-Mar-18 03:57 45.486139 -142.015875 110 37027ft 507kts
17-Mar-18 03:58 45.441936 -141.824865 110 37027ft 509kts
17-Mar-18 03:59 45.397183 -141.633149 110 37027ft 509kts
17-Mar-18 04:00 45.352190 -141.442070 110 37026ft 510kts
17-Mar-18 04:01 45.306871 -141.251282 110 37026ft 510kts
17-Mar-18 04:02 45.261063 -141.060075 110 37028ft 511kts
17-Mar-18 04:03 45.215013 -140.869477 110 37028ft 511kts
17-Mar-18 04:04 45.168537 -140.678810 110 37024ft 513kts
17-Mar-18 04:05 45.121514 -140.487417 110 37025ft 513kts
17-Mar-18 04:06 45.074826 -140.296995 110 37027ft 513kts
17-Mar-18 04:07 45.026954 -140.106823 110 37026ft 514kts
17-Mar-18 04:08 44.979257 -139.915903 108 37026ft 514kts
17-Mar-18 04:09 44.932155 -139.725316 109 37026ft 515kts
17-Mar-18 04:10 44.884578 -139.535040 108 37024ft 515kts
17-Mar-18 04:11 44.837877 -139.343759 108 37023ft 515kts
17-Mar-18 04:12 44.790316 -139.153793 108 37015ft 515kts
17-Mar-18 04:13 44.742161 -138.963548 108 37015ft 515kts
17-Mar-18 04:14 44.693844 -138.774300 108 37015ft 515kts
17-Mar-18 04:15 44.645245 -138.585513 108 37015ft 514kts
17-Mar-18 04:16 44.596110 -138.396168 108 37015ft 515kts
17-Mar-18 04:17 44.546782 -138.207625 108 37015ft 516kts
17-Mar-18 04:18 44.496900 -138.018434 108 37015ft 517kts
17-Mar-18 04:19 44.446860 -137.830171 108 37015ft 516kts
17-Mar-18 04:20 44.396538 -137.642322 108 37015ft 516kts
17-Mar-18 04:21 44.345749 -137.454211 108 37015ft 516kts
17-Mar-18 04:22 44.294860 -137.267231 108 37016ft 516kts
17-Mar-18 04:23 44.243713 -137.080692 108 37015ft 515kts
17-Mar-18 04:24 44.192207 -136.894303 108 37014ft 514kts
17-Mar-18 04:25 44.140576 -136.708819 108 37015ft 514kts
17-Mar-18 04:26 44.097080 -136.553666 108 37015ft 515kts
17-Mar-18 04:27 44.036076 -136.337698 108 37015ft 515kts
17-Mar-18 04:28 43.983420 -136.152809 108 37015ft 516kts
17-Mar-18 04:29 43.939078 -135.998130 108 37015ft 516kts
17-Mar-18 04:30 43.876958 -135.783057 108 37015ft 516kts
17-Mar-18 04:31 43.832211 -135.629276 108 37017ft 517kts
17-Mar-18 04:32 43.768975 -135.413542 108 37016ft 518kts
17-Mar-18 04:33 43.723649 -135.260049 108 37015ft 519kts
17-Mar-18 04:34 43.668650 -135.074994 108 37015ft 519kts
17-Mar-18 04:35 43.604378 -134.860432 108 37016ft 519kts
17-Mar-18 04:36 43.558196 -134.707345 108 37016ft 519kts
17-Mar-18 04:37 43.502363 -134.523493 108 37016ft 518kts
17-Mar-18 04:38 43.446474 -134.340830 108 36995ft 518kts
17-Mar-18 04:39 43.390342 -134.158525 108 37030ft 518kts
17-Mar-18 04:40 43.333663 -133.975789 108 37033ft 518kts
17-Mar-18 04:41 43.276900 -133.794052 108 37032ft 519kts
17-Mar-18 04:42 43.219774 -133.612452 108 37034ft 520kts
17-Mar-18 04:43 43.162124 -133.430383 108 37033ft 520kts
17-Mar-18 04:44 43.104255 -133.248905 108 37033ft 521kts
17-Mar-18 04:45 43.045834 -133.066940 108 37032ft 521kts
17-Mar-18 04:46 42.987375 -132.886094 108 37027ft 521kts
17-Mar-18 04:47 42.928574 -132.705415 108 37027ft 522kts
17-Mar-18 04:48 42.869147 -132.524048 108 37026ft 523kts
17-Mar-18 04:49 42.809643 -132.343653 108 37027ft 523kts
17-Mar-18 04:50 42.749639 -132.162951 109 37027ft 525kts
17-Mar-18 04:51 42.689044 -131.981683 109 37034ft 525kts
17-Mar-18 04:52 42.628369 -131.801376 109 37034ft 525kts
17-Mar-18 04:53 42.567205 -131.620834 109 37024ft 525kts
17-Mar-18 04:54 42.505933 -131.441117 110 37024ft 526kts
17-Mar-18 04:55 42.444431 -131.261914 110 37024ft 525kts
17-Mar-18 04:56 42.382561 -131.082811 110 37024ft 523kts
17-Mar-18 04:57 42.320786 -130.905121 110 37025ft 522kts
17-Mar-18 04:58 42.258830 -130.728040 111 37025ft 523kts
17-Mar-18 04:59 42.196275 -130.550379 111 37025ft 522kts
17-Mar-18 05:00 42.133821 -130.373859 111 37023ft 522kts
17-Mar-18 05:01 42.071055 -130.197233 112 37026ft 523kts
17-Mar-18 05:02 42.007427 -130.020638 112 37026ft 524kts
17-Mar-18 05:03 41.935455 -129.850030 118 37026ft 526kts
17-Mar-18 05:04 41.859897 -129.681913 117 37023ft 528kts
17-Mar-18 05:05 41.784216 -129.510167 117 37022ft 535kts
17-Mar-18 05:06 41.708449 -129.338903 117 37023ft 535kts
17-Mar-18 05:07 41.632167 -129.168149 118 37023ft 536kts
17-Mar-18 05:08 41.555177 -128.996853 118 37023ft 536kts
17-Mar-18 05:09 41.478325 -128.826844 118 37023ft 535kts
17-Mar-18 05:10 41.401258 -128.657289 118 37023ft 536kts
17-Mar-18 05:11 41.323724 -128.487675 118 37019ft 535kts
17-Mar-18 05:12 41.246458 -128.319586 118 37023ft 533kts
17-Mar-18 05:13 41.168934 -128.151852 118 37023ft 534kts
17-Mar-18 05:14 41.090841 -127.983827 118 37025ft 534kts
17-Mar-18 05:15 41.012881 -127.816984 119 37031ft 532kts
17-Mar-18 05:16 40.934695 -127.650577 119 37031ft 533kts
17-Mar-18 05:17 40.855939 -127.483851 119 37025ft 534kts
17-Mar-18 05:18 40.777318 -127.317715 119 37022ft 534kts
17-Mar-18 05:19 40.698096 -127.151914 120 37022ft 534kts
17-Mar-18 05:20 40.618374 -126.986187 120 37023ft 534kts
17-Mar-18 05:21 40.539358 -126.820939 120 37027ft 534kts
17-Mar-18 05:22 40.459994 -126.656125 120 37027ft 535kts
17-Mar-18 05:23 40.380918 -126.490542 120 37028ft 534kts
17-Mar-18 05:24 40.301499 -126.325916 120 37028ft 535kts
17-Mar-18 05:25 40.221639 -126.161626 121 37028ft 535kts
17-Mar-18 05:26 40.141248 -125.997144 121 37028ft 536kts
17-Mar-18 05:27 40.060853 -125.833519 121 37028ft 536kts
17-Mar-18 05:28 39.980207 -125.670233 121 37028ft 535kts
17-Mar-18 05:29 39.899061 -125.506796 121 37028ft 536kts
17-Mar-18 05:30 39.817921 -125.344198 122 37028ft 536kts
17-Mar-18 05:31 39.736491 -125.181868 122 37028ft 537kts
17-Mar-18 05:32 39.654584 -125.019425 123 37028ft 537kts
17-Mar-18 05:33 39.572785 -124.858024 123 37026ft 536kts
17-Mar-18 05:34 39.490767 -124.697001 123 37029ft 536kts
17-Mar-18 05:35 39.408410 -124.536135 123 37029ft 535kts
17-Mar-18 05:36 39.326075 -124.376111 124 37029ft 535kts
17-Mar-18 05:37 39.243559 -124.216535 124 37030ft 535kts
17-Mar-18 05:38 39.160712 -124.056596 124 37026ft 536kts
17-Mar-18 05:39 39.146271 -124.028665 124 37024ft 536kts
17-Mar-18 05:40 39.146271 -124.028665 124 37024ft 536kts
17-Mar-18 05:41 39.146271 -124.028665 124 37024ft 536kts
17-Mar-18 05:42 39.146271 -124.028665 124 37024ft 536kts
17-Mar-18 05:43 39.146271 -124.028665 124 37024ft 536kts
17-Mar-18 05:44 39.125835 -123.989474 124 37025ft 536kts
17-Mar-18 05:45 39.063795 -123.871280 125 38693ft 502kts
17-Mar-18 05:46 39.044182 -123.833989 125 38217ft 511kts
17-Mar-18 05:47 39.008626 -123.766755 126 36895ft 516kts
17-Mar-18 05:48 38.908239 -123.629461 139 33185ft 533kts
17-Mar-18 05:49 38.802391 -123.497567 137 30506ft 525kts
17-Mar-18 05:50 38.700205 -123.366810 137 28143ft 511kts
17-Mar-18 05:51 38.602619 -123.242704 137 25923ft 477kts
17-Mar-18 05:52 38.512970 -123.129733 138 24682ft 426kts
17-Mar-18 05:53 38.431110 -123.026313 137 23346ft 413kts
17-Mar-18 05:54 38.350314 -122.924668 138 21682ft 404kts
17-Mar-18 05:55 38.271107 -122.825628 137 20021ft 395kts
17-Mar-18 05:56 38.181483 -122.754902 166 18425ft 372kts
17-Mar-18 05:57 38.082556 -122.725925 171 16888ft 360kts
17-Mar-18 05:58 37.985812 -122.698161 170 15440ft 352kts
17-Mar-18 05:59 37.893050 -122.660644 156 14014ft 349kts
17-Mar-18 06:00 37.818908 -122.587795 139 12627ft 328kts
17-Mar-18 06:01 37.751774 -122.516736 142 11346ft 305kts
17-Mar-18 06:02 37.687063 -122.447983 141 9966ft 296kts
17-Mar-18 06:03 37.625443 -122.382613 141 8578ft 284kts
17-Mar-18 06:04 37.559829 -122.334502 156 7426ft 262kts
17-Mar-18 06:05 37.499946 -122.285621 134 6462ft 255kts
17-Mar-18 06:06 37.464854 -122.210447 113 5532ft 245kts
17-Mar-18 06:07 37.479208 -122.139593 34 4631ft 219kts
17-Mar-18 06:08 37.529703 -122.153405 303 3803ft 185kts
17-Mar-18 06:09 37.551979 -122.210463 294 2814ft 185kts
17-Mar-18 06:10 37.575818 -122.267386 296 1701ft 169kts
17-Mar-18 06:11 37.596226 -122.315867 298 764ft 148kts
17-Mar-18 06:12 37.615351 -122.361376 297 28ft 141kts
17-Mar-18 06:13 37.621359 -122.376930 241 26ft 11kts
17-Mar-18 06:14 37.619409 -122.379595 223 26ft 9kts
17-Mar-18 06:15 37.618266 -122.379690 159 26ft 8kts
17-Mar-18 06:16 37.616388 -122.379787 206 26ft 6kts
17-Mar-18 06:17 37.615019 -122.380695 208 26ft 4kts
17-Mar-18 06:18 37.612427 -122.382404 207 26ft 11kts
17-Mar-18 06:19 37.610627 -122.384625 295 26ft 8kts
17-Mar-18 06:20 37.611658 -122.387100 300 26ft 6kts
17-Mar-18 06:21 37.613005 -122.387367 324 26ft 2kts
17-Mar-18 06:22 37.613311 -122.388000 297 26ft 1kts
17-Mar-18 06:23 37.613375 -122.388156 297 26ft 0kts
17-Mar-18 06:24 37.613375 -122.388156 297 26ft 0kts
17-Mar-18 06:25 37.613375 -122.388156 297 26ft 0kts
17-Mar-18 06:26 37.613375 -122.388156 297 26ft 0kts
17-Mar-18 06:27 37.613375 -122.388156 297 26ft 0kts
17-Mar-18 06:28 37.613375 -122.388156 297 26ft 0kts

Navigation Log

Ident Type
Flight plan parsing failed, navigation log unavailable